Time;durP1;ratioP1;P1;durP2;ratioP2;P2;SDS_P1;SDS_P2;PMS_P1;PMS_P2;Temp;Humidity;BMP_temperature;BMP_pressure;BME280_temperature;BME280_humidity;BME280_pressure;Samples;Min_cycle;Max_cycle;Signal;HPM_P1;HPM_P2
2022/10/20 00:00:59;;;;;;;14.43;7.25;;;7.90;90.10;;;;;;5093850;28;20028;-40
2022/10/20 00:03:26;;;;;;;16.52;8.15;;;7.90;90.10;;;;;;5092591;28;20024;-38
2022/10/20 00:05:52;;;;;;;16.02;8.82;;;7.90;90.20;;;;;;5093687;28;20024;-40
2022/10/20 00:08:18;;;;;;;15.48;8.93;;;7.90;90.10;;;;;;5093627;28;20064;-40
2022/10/20 00:10:52;;;;;;;14.95;8.38;;;8.00;90.10;;;;;;5093798;28;20052;-38
2022/10/20 00:13:18;;;;;;;15.23;8.23;;;7.90;90.10;;;;;;5093679;28;20023;-39
2022/10/20 00:15:48;;;;;;;15.30;7.70;;;7.90;90.00;;;;;;5093596;28;20468;-40
2022/10/20 00:18:14;;;;;;;11.18;7.63;;;7.90;90.10;;;;;;5093519;28;20024;-39
2022/10/20 00:20:39;;;;;;;13.35;6.72;;;7.90;90.00;;;;;;5093534;28;20030;-39
2022/10/20 00:23:05;;;;;;;13.40;7.35;;;7.90;90.00;;;;;;5093502;28;20050;-38
2022/10/20 00:25:31;;;;;;;11.43;6.47;;;7.90;90.00;;;;;;5093423;28;20020;-38
2022/10/20 00:27:56;;;;;;;18.63;6.70;;;7.90;90.00;;;;;;5093350;28;20019;-40
2022/10/20 00:30:22;;;;;;;12.70;7.10;;;7.90;90.00;;;;;;5093407;28;20086;-40
2022/10/20 00:32:47;;;;;;;14.73;6.13;;;8.00;89.90;;;;;;5093354;28;20027;-40
2022/10/20 00:35:13;;;;;;;12.30;6.88;;;7.90;89.90;;;;;;5093179;28;20479;-39
2022/10/20 00:37:39;;;;;;;13.88;6.57;;;7.90;89.90;;;;;;5093283;28;20036;-39
2022/10/20 00:40:05;;;;;;;11.07;6.03;;;7.90;89.90;;;;;;5093481;28;20028;-39
2022/10/20 00:42:30;;;;;;;12.90;6.93;;;7.90;89.80;;;;;;5093351;28;20020;-39
2022/10/20 00:44:58;;;;;;;48.45;7.45;;;7.90;89.90;;;;;;5093230;28;20119;-39
2022/10/20 00:47:42;;;;;;;14.48;6.45;;;7.90;89.90;;;;;;5093239;28;20047;-39
2022/10/20 00:50:10;;;;;;;13.50;6.57;;;7.90;89.80;;;;;;5093644;28;20412;-38
2022/10/20 00:52:37;;;;;;;19.42;8.15;;;7.80;89.90;;;;;;5091873;28;20103;-38
2022/10/20 00:55:04;;;;;;;15.93;7.07;;;7.90;89.90;;;;;;5093151;28;20077;-39
2022/10/20 00:57:31;;;;;;;10.00;6.28;;;7.90;89.90;;;;;;5093483;28;20103;-41
2022/10/20 00:59:57;;;;;;;13.88;6.35;;;7.80;89.90;;;;;;5093251;28;20055;-39
2022/10/20 01:02:23;;;;;;;13.85;6.95;;;7.80;89.90;;;;;;5093241;28;20028;-39
2022/10/20 01:04:49;;;;;;;11.00;6.65;;;7.80;89.90;;;;;;5093197;28;20031;-38
2022/10/20 01:07:14;;;;;;;14.38;6.88;;;7.90;89.90;;;;;;5093542;28;20034;-38
2022/10/20 01:09:40;;;;;;;12.57;6.43;;;7.80;89.90;;;;;;5096939;28;20487;-38
2022/10/20 01:12:24;;;;;;;8.68;5.75;;;7.80;89.80;;;;;;5097041;28;20016;-38
2022/10/20 01:15:07;;;;;;;12.38;7.25;;;7.80;89.90;;;;;;5097056;28;20414;-38
2022/10/20 01:17:36;;;;;;;11.93;6.57;;;7.90;89.90;;;;;;5097575;28;20032;-40
2022/10/20 01:20:19;;;;;;;12.70;7.05;;;7.90;89.80;;;;;;5096801;28;20034;-40
2022/10/20 01:23:09;;;;;;;13.77;6.28;;;7.80;89.80;;;;;;5097084;28;20495;-39
2022/10/20 01:25:35;;;;;;;20.15;6.55;;;7.80;89.80;;;;;;5096836;28;20019;-38
2022/10/20 01:28:35;;;;;;;14.63;5.88;;;7.80;89.80;;;;;;5095352;28;20499;-38
2022/10/20 01:31:07;;;;;;;15.97;7.40;;;7.80;89.80;;;;;;5089706;28;20122;-38
2022/10/20 01:33:57;;;;;;;13.68;6.72;;;7.80;89.90;;;;;;5097156;28;20423;-38
2022/10/20 01:36:56;;;;;;;13.40;6.60;;;7.80;89.90;;;;;;5097422;28;20027;-38
2022/10/20 01:39:29;;;;;;;14.80;6.85;;;7.80;89.90;;;;;;5096613;28;20511;-38
2022/10/20 01:42:01;;;;;;;15.02;7.22;;;7.80;90.10;;;;;;5096868;28;20024;-38
2022/10/20 01:44:28;;;;;;;13.10;6.43;;;7.80;90.10;;;;;;5097002;28;20105;-38
2022/10/20 01:46:56;;;;;;;11.25;6.22;;;7.80;90.10;;;;;;5096631;28;20032;-38
2022/10/20 01:49:23;;;;;;;13.13;5.97;;;7.80;90.20;;;;;;5096252;28;20440;-38
2022/10/20 01:51:49;;;;;;;14.20;6.88;;;7.80;90.10;;;;;;5096304;28;20030;-38
2022/10/20 01:54:26;;;;;;;11.18;6.35;;;7.80;90.10;;;;;;5096261;28;20095;-38
2022/10/20 01:57:07;;;;;;;18.20;6.80;;;7.70;90.10;;;;;;5096538;28;20020;-39
2022/10/20 02:00:10;;;;;;;9.50;6.32;;;7.70;90.20;;;;;;5096540;28;20467;-39
2022/10/20 02:03:13;;;;;;;11.70;7.03;;;7.70;90.20;;;;;;5073988;28;20142;-39
2022/10/20 02:05:44;;;;;;;11.10;6.35;;;7.70;90.30;;;;;;5096004;28;20032;-39
2022/10/20 02:08:16;;;;;;;16.55;7.13;;;7.70;90.30;;;;;;5096487;28;20320;-39
2022/10/20 02:10:51;;;;;;;13.10;7.28;;;7.70;90.30;;;;;;5096151;28;20526;-40
2022/10/20 02:13:19;;;;;;;16.83;7.65;;;7.70;90.40;;;;;;5096601;28;20119;-39
2022/10/20 02:15:50;;;;;;;14.38;7.20;;;7.60;90.30;;;;;;5095594;28;20035;-43
2022/10/20 02:18:18;;;;;;;;;;;7.70;90.30;;;;;;5097887;28;20035;-39
2022/10/20 02:20:47;;;;;;;20.10;6.57;;;7.70;90.30;;;;;;5097388;28;19904;-40
2022/10/20 02:23:13;;;;;;;11.05;6.70;;;7.70;90.30;;;;;;5097892;28;20039;-40
2022/10/20 02:25:40;;;;;;;11.25;5.50;;;7.70;90.30;;;;;;5098821;28;20020;-40
2022/10/20 02:28:10;;;;;;;14.05;7.22;;;7.60;90.30;;;;;;5098058;28;20420;-40
2022/10/20 02:30:36;;;;;;;28.70;8.80;;;7.70;90.30;;;;;;5097739;28;20059;-45
2022/10/20 02:33:03;;;;;;;9.50;6.32;;;7.70;90.20;;;;;;5100379;28;20071;-40
2022/10/20 02:35:31;;;;;;;9.88;6.75;;;7.70;90.20;;;;;;5098025;28;20021;-40
2022/10/20 02:37:57;;;;;;;16.92;7.13;;;7.70;90.20;;;;;;5097687;28;20035;-40
2022/10/20 02:40:23;;;;;;;11.23;6.97;;;7.70;90.20;;;;;;5097912;28;20036;-39
2022/10/20 02:42:48;;;;;;;12.43;6.13;;;7.70;90.20;;;;;;5096184;28;20024;-39
2022/10/20 02:45:14;;;;;;;12.18;7.22;;;7.70;90.10;;;;;;5096337;28;20028;-39
2022/10/20 02:47:40;;;;;;;23.27;7.97;;;7.80;90.10;;;;;;5095667;28;20050;-39
2022/10/20 02:50:07;;;;;;;14.43;6.60;;;7.70;90.20;;;;;;5095882;28;20494;-39
2022/10/20 02:52:33;;;;;;;12.60;7.20;;;7.70;90.20;;;;;;5095616;28;20479;-39
2022/10/20 02:54:59;;;;;;;9.07;6.38;;;7.70;90.10;;;;;;5095675;28;20016;-47
2022/10/20 02:57:25;;;;;;;13.45;6.63;;;7.70;90.10;;;;;;5095562;28;20028;-39
2022/10/20 02:59:50;;;;;;;12.57;6.63;;;7.70;90.10;;;;;;5095901;28;20027;-40
2022/10/20 03:02:16;;;;;;;19.48;7.70;;;7.70;90.10;;;;;;5095371;28;20032;-39
2022/10/20 03:04:42;;;;;;;12.98;7.95;;;7.70;90.20;;;;;;5094971;28;20024;-38
2022/10/20 03:07:07;;;;;;;17.33;7.32;;;7.70;90.00;;;;;;5094874;28;20070;-39
2022/10/20 03:09:33;;;;;;;7.95;6.28;;;7.70;90.00;;;;;;5095316;28;20051;-39
2022/10/20 03:11:59;;;;;;;14.05;7.97;;;7.80;90.10;;;;;;5093603;28;20028;-39
2022/10/20 03:14:24;;;;;;;12.43;6.85;;;7.80;90.00;;;;;;5094811;28;20024;-39
2022/10/20 03:16:50;;;;;;;9.98;6.65;;;7.70;90.00;;;;;;5095111;28;20024;-38
2022/10/20 03:19:15;;;;;;;14.10;6.90;;;7.70;90.10;;;;;;5094780;28;20063;-39
2022/10/20 03:21:41;;;;;;;17.75;8.05;;;7.70;90.10;;;;;;5094444;28;20024;-39
2022/10/20 03:24:07;;;;;;;14.00;8.02;;;7.70;90.10;;;;;;5094431;28;20031;-38
2022/10/20 03:26:32;;;;;;;12.75;8.02;;;7.80;90.10;;;;;;5094387;28;20032;-39
2022/10/20 03:28:58;;;;;;;15.57;7.28;;;7.80;90.10;;;;;;5094634;28;20027;-38
2022/10/20 03:31:24;;;;;;;11.52;6.82;;;7.70;90.10;;;;;;5093728;28;20468;-39
2022/10/20 03:33:49;;;;;;;13.52;7.63;;;7.80;90.10;;;;;;5094503;28;20104;-39
2022/10/20 03:36:15;;;;;;;17.00;8.00;;;7.80;90.20;;;;;;5093019;28;20118;-38
2022/10/20 03:38:44;;;;;;;11.93;6.80;;;7.70;90.10;;;;;;5094320;28;20020;-38
2022/10/20 03:41:10;;;;;;;15.13;8.73;;;7.70;90.10;;;;;;5092834;28;20032;-39
2022/10/20 03:43:37;;;;;;;21.45;8.35;;;7.70;90.20;;;;;;5094077;28;20028;-38
2022/10/20 03:46:06;;;;;;;13.55;8.25;;;7.70;90.30;;;;;;5093881;28;20495;-38
2022/10/20 03:48:32;;;;;;;12.00;6.78;;;7.70;90.20;;;;;;5094327;28;20055;-39
2022/10/20 03:51:00;;;;;;;11.23;7.30;;;7.70;90.30;;;;;;5094023;28;20384;-39
2022/10/20 03:53:25;;;;;;;14.68;8.68;;;7.70;90.30;;;;;;5075898;28;20024;-41
2022/10/20 03:55:51;;;;;;;16.00;8.07;;;7.80;90.30;;;;;;5094362;28;20099;-38
2022/10/20 03:58:17;;;;;;;13.50;6.95;;;7.70;90.20;;;;;;5093829;28;20329;-38
2022/10/20 04:00:43;;;;;;;12.82;8.20;;;7.70;90.20;;;;;;5093792;28;20035;-38
2022/10/20 04:03:08;;;;;;;16.13;8.73;;;7.70;90.30;;;;;;5093740;28;20028;-38
2022/10/20 04:05:34;;;;;;;14.95;9.57;;;7.70;90.20;;;;;;5092407;28;20027;-39
2022/10/20 04:07:59;;;;;;;14.23;9.07;;;7.70;90.30;;;;;;5093670;28;20031;-38
2022/10/20 04:10:25;;;;;;;16.13;7.85;;;7.70;90.20;;;;;;5093687;28;20031;-39
2022/10/20 04:12:51;;;;;;;13.63;7.90;;;7.70;90.30;;;;;;5093600;28;20032;-38
2022/10/20 04:15:19;;;;;;;18.58;8.85;;;7.70;90.30;;;;;;5093370;28;20020;-38
2022/10/20 04:17:45;;;;;;;13.00;8.07;;;7.70;90.20;;;;;;5093652;28;20095;-39
2022/10/20 04:20:10;;;;;;;15.70;8.70;;;7.70;90.20;;;;;;5093535;28;20055;-39
2022/10/20 04:22:37;;;;;;;12.88;8.30;;;7.70;90.20;;;;;;5093429;28;20406;-40
2022/10/20 04:25:03;;;;;;;13.02;8.70;;;7.70;90.30;;;;;;5093980;28;20324;-38
2022/10/20 04:27:28;;;;;;;17.05;8.70;;;7.70;90.30;;;;;;5093431;28;20081;-38
2022/10/20 04:29:54;;;;;;;17.48;9.15;;;7.80;90.40;;;;;;5093786;28;20172;-38
2022/10/20 04:32:19;;;;;;;18.70;7.88;;;7.70;90.30;;;;;;5093522;28;20016;-38
2022/10/20 04:34:45;;;;;;;15.75;9.00;;;7.70;90.40;;;;;;5093840;28;20047;-40
2022/10/20 04:37:11;;;;;;;22.25;8.85;;;7.80;90.40;;;;;;5092390;28;20032;-39
2022/10/20 04:39:36;;;;;;;16.85;9.88;;;7.80;90.30;;;;;;5093311;28;20099;-39
2022/10/20 04:42:02;;;;;;;17.67;8.88;;;7.80;90.30;;;;;;5093671;28;20329;-39
2022/10/20 04:44:28;;;;;;;13.38;8.02;;;7.80;90.30;;;;;;5093294;28;20031;-39
2022/10/20 04:46:54;;;;;;;12.38;8.50;;;7.80;90.20;;;;;;5093018;28;20047;-39
2022/10/20 04:49:20;;;;;;;13.32;8.27;;;7.80;90.20;;;;;;5092036;28;20047;-39
2022/10/20 04:51:45;;;;;;;13.77;8.48;;;7.90;90.20;;;;;;5092002;28;20020;-39
2022/10/20 04:54:11;;;;;;;11.90;8.70;;;7.90;90.00;;;;;;5093051;28;20028;-38
2022/10/20 04:56:37;;;;;;;14.23;8.95;;;7.80;89.90;;;;;;5092989;28;20055;-38
2022/10/20 04:59:03;;;;;;;13.48;7.88;;;7.90;90.00;;;;;;5093379;28;20467;-38
2022/10/20 05:01:30;;;;;;;14.93;8.57;;;7.80;90.00;;;;;;5091672;28;20028;-38
2022/10/20 05:03:56;;;;;;;15.27;8.52;;;7.80;90.00;;;;;;5093363;28;20028;-39
2022/10/20 05:06:27;;;;;;;15.50;7.90;;;7.80;90.00;;;;;;5093108;28;20383;-39
2022/10/20 05:08:56;;;;;;;13.85;8.48;;;7.80;89.90;;;;;;5093084;28;20032;-39
2022/10/20 05:11:23;;;;;;;12.85;8.57;;;7.90;89.90;;;;;;5093180;28;20060;-39
2022/10/20 05:13:48;;;;;;;24.40;9.20;;;7.90;89.90;;;;;;5092816;28;20027;-39
2022/10/20 05:16:16;;;;;;;20.00;9.68;;;7.90;89.70;;;;;;5092854;28;20028;-39
2022/10/20 05:18:42;;;;;;;18.73;8.85;;;8.20;90.10;;;;;;5093291;28;20051;-39
2022/10/20 05:21:19;;;;;;;22.90;10.02;;;8.10;89.40;;;;;;5092641;28;20032;-39
2022/10/20 05:23:45;;;;;;;13.05;8.73;;;8.10;89.20;;;;;;5093016;28;20035;-39
2022/10/20 05:26:14;;;;;;;16.17;8.50;;;8.20;89.10;;;;;;5091434;28;20039;-39
2022/10/20 05:28:43;;;;;;;15.65;8.55;;;8.00;89.00;;;;;;5092702;28;20054;-39
2022/10/20 05:31:09;;;;;;;16.15;8.80;;;8.10;89.20;;;;;;5092650;28;20020;-39
2022/10/20 05:33:35;;;;;;;17.27;10.73;;;8.10;89.10;;;;;;5092919;28;20036;-39
2022/10/20 05:36:09;;;;;;;20.65;9.50;;;8.20;89.00;;;;;;5092008;28;20024;-39
2022/10/20 05:38:39;;;;;;;16.08;8.82;;;8.10;88.80;;;;;;5092900;28;20069;-39
2022/10/20 05:41:10;;;;;;;13.88;9.65;;;8.20;88.70;;;;;;5092877;28;20028;-39
2022/10/20 05:43:35;;;;;;;;;;;8.20;88.80;;;;;;5091812;28;20028;-38
2022/10/20 05:46:01;;;;;;;18.85;9.80;;;8.20;88.70;;;;;;5092065;28;19939;-39
2022/10/20 05:48:27;;;;;;;12.55;8.00;;;8.20;88.80;;;;;;5092408;28;20383;-39
2022/10/20 16:47:14;;;;;;;21.35;9.60;;;14.80;88.60;;;;;;5124064;27;20457;-39
2022/10/20 16:49:39;;;;;;;21.40;10.82;;;14.70;88.90;;;;;;5090626;28;20058;-39
2022/10/20 16:52:05;;;;;;;20.45;12.13;;;14.60;88.90;;;;;;5090906;28;20409;-40
2022/10/20 16:54:31;;;;;;;19.50;12.65;;;14.60;89.30;;;;;;5090708;28;20027;-40
2022/10/20 16:56:56;;;;;;;21.70;13.38;;;14.50;89.40;;;;;;5090331;28;20436;-39
2022/10/20 16:59:22;;;;;;;29.35;13.48;;;14.50;89.70;;;;;;5090621;28;20054;-39
2022/10/20 17:01:47;;;;;;;20.38;10.50;;;14.40;89.70;;;;;;5090668;28;20222;-39
2022/10/20 17:04:13;;;;;;;21.10;10.73;;;14.40;89.90;;;;;;5090421;28;20028;-39
2022/10/20 17:06:39;;;;;;;24.38;11.30;;;14.40;90.10;;;;;;5090226;28;20039;-44
2022/10/20 17:09:04;;;;;;;23.23;11.40;;;14.30;89.90;;;;;;5088794;28;20388;-41
2022/10/20 17:11:31;;;;;;;19.95;11.10;;;14.20;90.00;;;;;;5090091;28;20017;-39
2022/10/20 17:13:58;;;;;;;23.65;10.77;;;14.20;90.10;;;;;;5089800;28;20099;-40
2022/10/20 17:16:27;;;;;;;19.83;13.25;;;14.20;90.20;;;;;;5089820;28;20025;-40
2022/10/20 17:18:53;;;;;;;19.17;11.07;;;14.10;90.40;;;;;;5089723;28;20032;-41
2022/10/20 17:21:19;;;;;;;21.52;11.57;;;14.10;90.40;;;;;;5089864;28;20096;-40
2022/10/20 17:23:45;;;;;;;23.77;10.65;;;14.10;90.50;;;;;;5089835;28;20059;-40
2022/10/20 17:26:14;;;;;;;18.75;11.18;;;14.00;90.40;;;;;;5089580;28;20142;-42
2022/10/20 17:28:40;;;;;;;18.70;10.40;;;14.10;90.40;;;;;;5090028;28;20028;-40
2022/10/20 17:31:08;;;;;;;17.38;10.98;;;14.00;90.30;;;;;;5088611;28;20475;-40
2022/10/20 17:33:35;;;;;;;19.35;12.00;;;14.00;90.40;;;;;;5089814;28;20024;-39
2022/10/20 17:36:00;;;;;;;15.93;12.50;;;14.00;90.30;;;;;;5089390;28;20443;-39
2022/10/20 17:38:27;;;;;;;23.92;12.95;;;13.90;90.40;;;;;;5089658;28;20116;-39
2022/10/20 17:40:56;;;;;;;19.27;13.07;;;13.90;90.50;;;;;;5086399;28;20025;-38
2022/10/20 17:43:22;;;;;;;18.83;13.15;;;13.90;90.60;;;;;;5069476;28;20041;-38
2022/10/20 17:46:00;;;;;;;24.23;14.15;;;13.80;90.80;;;;;;5101612;28;20041;-40
2022/10/20 17:48:26;;;;;;;30.88;18.95;;;13.80;90.90;;;;;;5085978;28;20028;-40
2022/10/20 17:50:58;;;;;;;20.00;13.45;;;13.80;91.00;;;;;;5069265;28;20031;-39
2022/10/20 17:53:24;;;;;;;32.65;14.85;;;13.80;91.10;;;;;;5069060;28;20025;-39
2022/10/20 17:55:50;;;;;;;21.85;12.80;;;13.80;91.10;;;;;;5068017;28;20499;-39
2022/10/20 17:58:15;;;;;;;27.25;12.77;;;13.80;91.20;;;;;;5057718;28;20025;-39
2022/10/20 18:00:41;;;;;;;21.67;12.15;;;13.80;91.20;;;;;;5054284;28;20025;-38
2022/10/20 18:03:07;;;;;;;19.40;12.35;;;13.90;91.20;;;;;;5055513;28;20108;-38
2022/10/20 18:05:35;;;;;;;17.17;11.73;;;14.00;91.00;;;;;;5055608;28;20303;-40
2022/10/20 18:08:00;;;;;;;26.35;11.98;;;14.20;90.30;;;;;;5087713;28;20021;-39
2022/10/20 18:10:26;;;;;;;20.17;11.13;;;14.20;90.20;;;;;;5055744;28;20116;-39
2022/10/20 18:12:52;;;;;;;22.45;12.15;;;14.10;90.00;;;;;;5055787;28;20040;-39
2022/10/20 18:15:17;;;;;;;25.40;12.52;;;14.20;90.10;;;;;;5055571;28;20029;-41
2022/10/20 18:17:43;;;;;;;17.95;10.65;;;14.20;90.10;;;;;;5055239;28;20060;-40
2022/10/20 18:20:09;;;;;;;20.05;11.05;;;14.10;90.00;;;;;;5055722;28;20384;-40
2022/10/20 18:22:34;;;;;;;21.30;13.57;;;14.10;89.90;;;;;;5055224;28;20028;-38
2022/10/20 18:25:00;;;;;;;22.15;11.32;;;14.10;90.00;;;;;;5055056;28;20074;-40
2022/10/20 18:27:26;;;;;;;18.38;11.73;;;14.10;89.90;;;;;;5055236;28;20020;-40
2022/10/20 18:29:51;;;;;;;17.55;12.05;;;14.10;90.00;;;;;;5055961;28;20025;-39
2022/10/20 18:32:17;;;;;;;28.15;11.10;;;14.20;89.60;;;;;;5053880;28;20027;-40
2022/10/20 18:34:42;;;;;;;20.00;11.75;;;14.20;89.90;;;;;;5055833;28;20048;-40
2022/10/20 18:37:08;;;;;;;18.35;11.75;;;14.10;89.60;;;;;;5054863;28;20035;-39
2022/10/20 18:39:35;;;;;;;29.75;11.82;;;14.10;89.70;;;;;;5053728;28;20029;-39
2022/10/20 18:42:00;;;;;;;18.10;11.88;;;14.10;89.90;;;;;;5053687;28;20032;-40
2022/10/20 18:44:27;;;;;;;21.55;12.63;;;14.20;90.00;;;;;;5055015;28;20439;-41
2022/10/20 18:46:57;;;;;;;23.27;11.05;;;14.30;89.50;;;;;;5054666;28;20044;-41
2022/10/20 18:49:23;;;;;;;22.27;11.10;;;14.30;89.30;;;;;;5055308;28;20465;-39
2022/10/20 18:51:49;;;;;;;23.23;10.70;;;14.30;89.40;;;;;;5054786;28;20025;-39
2022/10/20 18:54:16;;;;;;;20.98;11.63;;;14.30;89.40;;;;;;5055028;28;20415;-40
2022/10/20 18:56:41;;;;;;;18.30;11.18;;;14.20;89.40;;;;;;5054827;28;20090;-39
2022/10/20 18:59:10;;;;;;;19.48;10.45;;;14.20;89.50;;;;;;5054820;28;20418;-43
2022/10/20 19:01:38;;;;;;;14.30;9.77;;;14.30;89.60;;;;;;5054870;28;20549;-39
2022/10/20 19:04:05;;;;;;;17.77;10.27;;;14.40;89.30;;;;;;5054557;28;20135;-40
2022/10/20 19:06:33;;;;;;;15.10;10.00;;;14.40;89.20;;;;;;5054533;28;20535;-39
2022/10/20 19:09:01;;;;;;;21.15;10.07;;;14.40;89.10;;;;;;5053815;28;20036;-39
2022/10/20 19:11:30;;;;;;;17.00;10.30;;;14.30;89.10;;;;;;5054597;28;20515;-39
2022/10/20 19:13:56;;;;;;;15.68;10.70;;;14.40;89.30;;;;;;5054428;28;20045;-39
2022/10/20 19:16:25;;;;;;;18.08;10.27;;;14.50;89.20;;;;;;5054639;28;20108;-39
2022/10/20 19:18:53;;;;;;;15.60;10.60;;;14.60;88.80;;;;;;5054349;28;20414;-39
2022/10/20 19:21:19;;;;;;;22.77;9.32;;;14.60;88.30;;;;;;5054214;28;20029;-39
2022/10/20 19:23:48;;;;;;;17.67;10.65;;;14.50;88.60;;;;;;5054334;28;20132;-41
2022/10/20 19:26:20;;;;;;;17.10;9.48;;;14.40;88.80;;;;;;5086492;28;20021;-39
2022/10/20 19:28:50;;;;;;;18.15;10.20;;;14.50;88.90;;;;;;5052935;28;20337;-39
2022/10/20 19:31:21;;;;;;;12.77;8.57;;;14.30;88.80;;;;;;5053959;28;20057;-39
2022/10/20 19:33:49;;;;;;;16.67;10.02;;;14.30;89.20;;;;;;5052696;28;20033;-39
2022/10/20 19:36:16;;;;;;;17.95;10.63;;;14.20;89.20;;;;;;5053955;28;20056;-40
2022/10/20 19:38:41;;;;;;;21.50;9.73;;;14.20;89.50;;;;;;5054043;28;20418;-41
2022/10/20 19:41:07;;;;;;;19.58;9.60;;;14.10;89.50;;;;;;5053978;28;20024;-39
2022/10/20 19:43:37;;;;;;;11.95;8.18;;;14.10;89.90;;;;;;5053946;28;20033;-41
2022/10/20 19:46:05;;;;;;;25.40;13.38;;;14.10;89.90;;;;;;5053625;28;20044;-39
2022/10/20 19:48:30;;;;;;;20.35;9.75;;;14.10;90.00;;;;;;5053760;28;20036;-39
2022/10/20 19:50:56;;;;;;;16.77;10.65;;;14.10;90.30;;;;;;5052169;28;20033;-40
2022/10/20 19:53:23;;;;;;;13.45;9.43;;;14.20;90.20;;;;;;5053470;28;20021;-39
2022/10/20 19:55:50;;;;;;;17.88;10.68;;;14.10;90.00;;;;;;5053784;28;20068;-39
2022/10/20 19:58:17;;;;;;;15.35;10.45;;;14.10;90.10;;;;;;5053360;28;20029;-39
2022/10/20 20:00:45;;;;;;;14.43;9.15;;;14.00;90.10;;;;;;5053389;28;20029;-41
2022/10/20 20:03:10;;;;;;;20.92;11.27;;;13.90;90.30;;;;;;5054034;28;20465;-39
2022/10/20 20:05:36;;;;;;;21.83;12.32;;;13.90;90.60;;;;;;5053279;28;20036;-40
2022/10/20 20:08:02;;;;;;;14.95;10.35;;;13.90;90.50;;;;;;5053310;28;20027;-42
2022/10/20 20:10:27;;;;;;;17.83;10.23;;;14.00;90.40;;;;;;5053436;28;20111;-39
2022/10/20 20:12:53;;;;;;;19.63;10.95;;;13.90;90.40;;;;;;5053453;28;20021;-38
2022/10/20 20:15:19;;;;;;;15.93;10.70;;;14.00;90.60;;;;;;5053153;28;20029;-39
2022/10/20 20:17:44;;;;;;;17.67;10.65;;;13.80;90.40;;;;;;5053098;28;20107;-38
2022/10/20 20:20:10;;;;;;;18.38;11.52;;;13.90;90.70;;;;;;5052916;28;20099;-39
2022/10/20 20:22:36;;;;;;;19.80;10.82;;;13.90;90.70;;;;;;5053193;28;20047;-39
2022/10/20 20:25:01;;;;;;;15.57;10.43;;;13.90;90.60;;;;;;5052912;28;20103;-38
2022/10/20 20:27:27;;;;;;;16.40;9.18;;;13.90;90.50;;;;;;5052882;28;20017;-38
2022/10/20 20:29:53;;;;;;;21.63;10.43;;;13.80;90.60;;;;;;5052962;28;20470;-39
2022/10/20 20:32:18;;;;;;;23.92;10.10;;;14.00;90.60;;;;;;5052877;28;20392;-39
2022/10/20 20:34:44;;;;;;;18.52;9.77;;;14.10;90.40;;;;;;5052858;28;20492;-39
2022/10/20 20:37:09;;;;;;;14.57;8.95;;;14.00;90.10;;;;;;5051266;28;20025;-40
2022/10/20 20:39:35;;;;;;;13.25;9.57;;;13.90;90.10;;;;;;5052763;28;20028;-41
2022/10/20 20:42:01;;;;;;;16.50;9.63;;;14.00;90.10;;;;;;5052763;28;20025;-39
2022/10/20 20:44:26;;;;;;;14.43;9.40;;;14.10;90.00;;;;;;5052911;28;20029;-39
2022/10/20 20:46:52;;;;;;;16.45;10.40;;;14.00;90.20;;;;;;5052513;28;20524;-39
2022/10/20 20:49:18;;;;;;;17.35;8.70;;;14.10;90.00;;;;;;5052965;28;20024;-39
2022/10/20 20:51:43;;;;;;;14.52;10.32;;;14.00;89.90;;;;;;5052763;28;20016;-40
2022/10/20 20:54:09;;;;;;;13.88;8.75;;;13.90;90.00;;;;;;5052553;28;20017;-39
2022/10/20 20:56:35;;;;;;;18.02;10.57;;;13.80;90.20;;;;;;5052799;28;20036;-39
2022/10/20 20:59:01;;;;;;;11.38;9.55;;;14.00;90.50;;;;;;5052926;28;20083;-38
2022/10/20 21:01:30;;;;;;;12.48;7.22;;;14.10;90.10;;;;;;5052569;28;20025;-39
2022/10/20 21:03:58;;;;;;;11.75;7.53;;;14.30;89.90;;;;;;5052712;28;20025;-39
2022/10/20 21:06:25;;;;;;;13.23;7.18;;;14.30;89.40;;;;;;5053104;28;20021;-40
2022/10/20 21:08:54;;;;;;;12.30;5.57;;;14.40;89.00;;;;;;5054004;28;20025;-39
2022/10/20 21:11:24;;;;;;;12.02;6.05;;;14.30;89.00;;;;;;5054000;28;20024;-40
2022/10/20 21:13:52;;;;;;;11.85;6.55;;;14.40;89.10;;;;;;5053954;28;20029;-40
2022/10/20 21:16:19;;;;;;;9.48;6.25;;;14.40;88.90;;;;;;5052302;28;20032;-39
2022/10/20 21:18:53;;;;;;;11.38;7.07;;;14.50;88.90;;;;;;5053925;28;20036;-39
2022/10/20 21:21:21;;;;;;;8.70;6.00;;;14.70;88.50;;;;;;5053825;28;20029;-40
2022/10/20 21:23:47;;;;;;;9.93;6.50;;;14.50;88.30;;;;;;5054464;28;20128;-40
2022/10/20 21:26:15;;;;;;;10.52;5.47;;;14.60;88.70;;;;;;5053244;28;20493;-39
2022/10/20 21:28:42;;;;;;;12.80;6.93;;;14.50;88.40;;;;;;5053198;28;20028;-40
2022/10/20 21:31:10;;;;;;;15.45;6.95;;;14.60;88.60;;;;;;5054902;28;20060;-40
2022/10/20 21:33:37;;;;;;;11.30;7.60;;;14.60;88.70;;;;;;5056480;28;20021;-39
2022/10/20 21:36:05;;;;;;;11.43;6.18;;;14.60;88.60;;;;;;5057425;28;20028;-39
2022/10/20 21:38:31;;;;;;;12.00;6.60;;;14.50;88.50;;;;;;5058303;28;20112;-41
2022/10/20 21:41:01;;;;;;;13.75;7.20;;;14.50;88.80;;;;;;5057943;28;20033;-44
2022/10/20 21:43:28;;;;;;;14.30;6.83;;;14.30;88.80;;;;;;5058494;28;20385;-40
2022/10/20 21:45:54;;;;;;;13.73;7.78;;;14.30;89.10;;;;;;5057918;28;20041;-39
2022/10/20 21:48:20;;;;;;;11.27;7.32;;;14.20;89.30;;;;;;5057400;28;20021;-38
2022/10/20 21:50:45;;;;;;;9.68;6.75;;;14.10;89.60;;;;;;5056278;28;20021;-39
2022/10/20 21:53:11;;;;;;;16.85;7.28;;;14.10;90.00;;;;;;5055878;28;20029;-38
2022/10/20 21:55:36;;;;;;;16.00;6.72;;;14.20;90.50;;;;;;5056131;28;20445;-38
2022/10/20 21:58:02;;;;;;;12.52;7.10;;;14.30;90.20;;;;;;5055718;28;20025;-38
2022/10/20 22:00:27;;;;;;;13.68;7.13;;;14.20;89.90;;;;;;5055734;28;20061;-39
2022/10/20 22:02:53;;;;;;;15.88;7.53;;;14.10;89.90;;;;;;5055620;28;20477;-40
2022/10/20 22:05:19;;;;;;;12.65;7.38;;;14.10;90.10;;;;;;5054507;28;20123;-38
2022/10/20 22:07:44;;;;;;;15.50;7.43;;;14.00;90.30;;;;;;5055701;28;20017;-38
2022/10/20 22:10:10;;;;;;;12.77;8.25;;;14.30;90.50;;;;;;5055463;28;20381;-40
2022/10/20 22:12:35;;;;;;;12.55;6.55;;;14.50;90.10;;;;;;5055785;28;20560;-39
2022/10/20 22:15:01;;;;;;;15.48;6.95;;;14.50;89.80;;;;;;5055443;28;20025;-39
2022/10/20 22:17:27;;;;;;;11.52;7.22;;;14.50;89.60;;;;;;5055532;28;20055;-40
2022/10/20 22:19:52;;;;;;;10.68;7.10;;;14.60;89.70;;;;;;5055254;28;20021;-40
2022/10/20 22:22:18;;;;;;;10.82;7.35;;;14.70;89.20;;;;;;5055549;28;20032;-39
2022/10/20 22:24:43;;;;;;;12.10;8.63;;;14.70;89.10;;;;;;5055284;28;20033;-40
2022/10/20 22:27:09;;;;;;;15.73;6.95;;;14.80;89.00;;;;;;5055366;28;20039;-38
2022/10/20 22:29:35;;;;;;;13.15;6.88;;;14.70;89.00;;;;;;5055154;28;20051;-38
2022/10/20 22:32:00;;;;;;;12.30;6.85;;;14.80;89.10;;;;;;5055188;28;20043;-39
2022/10/20 22:34:26;;;;;;;16.25;7.30;;;14.90;88.80;;;;;;5055037;28;20362;-39
2022/10/20 22:36:51;;;;;;;15.77;7.93;;;14.90;88.40;;;;;;5055061;28;20379;-38
2022/10/20 22:39:17;;;;;;;13.25;7.38;;;15.10;88.60;;;;;;5054883;28;20050;-39
2022/10/20 22:41:43;;;;;;;27.92;9.02;;;15.20;88.00;;;;;;5054952;28;20044;-40
2022/10/20 22:44:08;;;;;;;12.25;7.72;;;15.10;88.10;;;;;;5055032;28;20059;-39
2022/10/20 22:46:34;;;;;;;12.05;6.75;;;15.20;88.00;;;;;;5054656;28;20135;-39
2022/10/20 22:49:00;;;;;;;13.65;7.07;;;15.20;87.90;;;;;;5054001;28;20074;-48
2022/10/20 22:51:27;;;;;;;14.10;7.00;;;15.20;88.20;;;;;;5070439;28;20115;-40
2022/10/20 22:53:53;;;;;;;26.30;8.13;;;15.30;88.30;;;;;;5037097;28;20025;-38
2022/10/20 22:56:21;;;;;;;19.70;7.43;;;15.30;87.90;;;;;;5055225;28;20048;-40
2022/10/20 22:58:47;;;;;;;12.80;6.78;;;15.20;88.40;;;;;;5054807;28;20032;-38
2022/10/20 23:01:17;;;;;;;14.93;7.28;;;15.30;88.20;;;;;;5054568;28;20078;-39
2022/10/20 23:03:44;;;;;;;25.33;8.32;;;15.30;87.90;;;;;;5054844;28;20021;-40
2022/10/20 23:06:22;;;;;;;13.82;6.60;;;15.50;87.80;;;;;;5054739;28;20116;-39
2022/10/20 23:08:50;;;;;;;18.55;8.60;;;15.50;87.70;;;;;;5054477;28;20025;-39
2022/10/20 23:11:17;;;;;;;12.32;7.18;;;15.50;87.80;;;;;;5054341;28;20486;-38
2022/10/20 23:13:43;;;;;;;12.35;6.88;;;15.50;87.50;;;;;;5054250;28;20033;-43
2022/10/20 23:16:08;;;;;;;11.65;6.57;;;15.70;87.20;;;;;;5054273;28;20384;-39
2022/10/20 23:18:34;;;;;;;15.45;6.88;;;15.80;86.90;;;;;;5052981;28;20107;-39
2022/10/20 23:21:00;;;;;;;13.45;6.90;;;15.60;87.10;;;;;;5054186;28;20029;-38
2022/10/20 23:23:26;;;;;;;19.02;8.30;;;15.80;87.00;;;;;;5054177;28;20060;-38
2022/10/20 23:25:51;;;;;;;12.90;7.25;;;15.80;86.80;;;;;;5054043;28;20110;-39
2022/10/20 23:28:18;;;;;;;13.52;7.35;;;15.80;87.00;;;;;;5054244;28;20024;-39
2022/10/20 23:30:43;;;;;;;9.85;6.45;;;15.80;86.90;;;;;;5054214;28;20025;-38
2022/10/20 23:33:09;;;;;;;18.73;7.50;;;15.80;87.10;;;;;;5053828;28;20040;-39
2022/10/20 23:35:36;;;;;;;11.82;6.28;;;15.70;87.30;;;;;;5053927;28;20112;-38
2022/10/20 23:38:03;;;;;;;17.38;7.65;;;15.80;87.30;;;;;;5054297;28;20075;-38